Time;durP1;ratioP1;P1;durP2;ratioP2;P2;SDS_P1;SDS_P2;PMS_P1;PMS_P2;Temp;Humidity;BMP_temperature;BMP_pressure;BME280_temperature;BME280_humidity;BME280_pressure;Samples;Min_cycle;Max_cycle;Signal;HPM_P1;HPM_P2
2023/03/17 00:00:31;;;;;;;14.30;7.70;;;;;;;6.69;100.00;100064.50;105370;1296;25464;-72
2023/03/17 00:03:00;;;;;;;15.40;7.90;;;;;;;6.69;100.00;100070.58;105418;1296;25318;-72
2023/03/17 00:05:38;;;;;;;15.50;8.20;;;;;;;6.68;100.00;100073.02;105525;1296;22544;-72
2023/03/17 00:08:19;;;;;;;16.30;8.60;;;;;;;6.66;100.00;100073.72;105430;1296;25588;-71
2023/03/17 00:10:51;;;;;;;18.50;8.80;;;;;;;6.66;100.00;100076.38;105591;1296;25525;-72
2023/03/17 00:13:19;;;;;;;17.50;8.30;;;;;;;6.68;100.00;100077.18;105394;1296;26525;-71
2023/03/17 00:15:59;;;;;;;14.10;7.30;;;;;;;6.69;100.00;100079.75;105389;1296;26643;-72
2023/03/17 00:18:29;;;;;;;17.30;8.40;;;;;;;6.71;100.00;100080.24;105373;1296;22546;-71
2023/03/17 00:20:58;;;;;;;20.20;9.80;;;;;;;6.71;100.00;100079.69;105126;1296;25295;-71
2023/03/17 00:23:27;;;;;;;19.50;9.40;;;;;;;6.70;100.00;100081.05;105633;1296;24310;-72
2023/03/17 00:25:56;;;;;;;19.50;9.60;;;;;;;6.68;100.00;100075.20;105273;1296;25328;-71
2023/03/17 00:28:26;;;;;;;16.90;8.60;;;;;;;6.66;100.00;100070.50;105634;1296;25360;-72
2023/03/17 00:30:57;;;;;;;16.30;8.40;;;;;;;6.66;100.00;100075.51;105386;1296;22706;-72
2023/03/17 00:33:27;;;;;;;18.90;9.00;;;;;;;6.65;100.00;100073.48;105516;1296;25691;-71
2023/03/17 00:35:56;;;;;;;18.60;8.30;;;;;;;6.64;100.00;100071.95;105125;1296;26631;-73
2023/03/17 00:38:25;;;;;;;21.80;10.30;;;;;;;6.65;100.00;100070.42;105205;1296;22494;-72
2023/03/17 00:40:56;;;;;;;28.10;11.50;;;;;;;6.66;100.00;100074.80;105616;1296;25378;-71
2023/03/17 00:43:25;;;;;;;24.20;10.80;;;;;;;6.66;100.00;100079.27;105513;1296;22543;-72
2023/03/17 00:45:54;;;;;;;30.40;13.60;;;;;;;6.68;100.00;100077.71;105662;1296;25369;-71
2023/03/17 00:48:24;;;;;;;24.10;12.00;;;;;;;6.68;100.00;100078.58;105472;1296;25485;-71
2023/03/17 00:50:53;;;;;;;26.00;11.30;;;;;;;6.66;100.00;100082.69;105367;1296;25308;-70
2023/03/17 00:53:22;;;;;;;27.50;12.10;;;;;;;6.68;100.00;100089.34;105604;1296;23835;-71
2023/03/17 00:55:51;;;;;;;26.60;11.60;;;;;;;6.66;100.00;100087.64;105669;1296;24069;-72
2023/03/17 00:58:25;;;;;;;27.50;11.40;;;;;;;6.67;100.00;100089.80;105448;1296;25499;-72
2023/03/17 01:00:54;;;;;;;31.00;12.60;;;;;;;6.67;100.00;100085.49;105512;1296;22545;-71
2023/03/17 01:03:24;;;;;;;45.30;15.70;;;;;;;6.66;100.00;100090.52;105606;1296;25561;-70
2023/03/17 01:05:53;;;;;;;45.10;15.40;;;;;;;6.68;100.00;100095.83;105304;1296;24256;-71
2023/03/17 01:08:24;;;;;;;52.80;15.60;;;;;;;6.68;100.00;100097.91;105552;1296;25338;-71
2023/03/17 01:10:53;;;;;;;45.90;15.00;;;;;;;6.70;100.00;100105.04;105454;1296;24246;-70
2023/03/17 01:13:27;;;;;;;51.40;17.20;;;;;;;6.72;100.00;100105.08;105372;1296;23980;-73
2023/03/17 01:15:56;;;;;;;47.30;18.70;;;;;;;6.72;100.00;100113.25;105662;1296;22847;-70
2023/03/17 01:18:25;;;;;;;40.00;15.20;;;;;;;6.72;100.00;100118.27;105614;1296;22549;-72
2023/03/17 01:20:54;;;;;;;28.50;12.70;;;;;;;6.74;100.00;100120.98;108137;1296;22956;-70
2023/03/17 01:23:23;;;;;;;24.10;10.80;;;;;;;6.74;100.00;100125.78;105959;1296;1003151;-71
2023/03/17 01:25:53;;;;;;;24.40;11.20;;;;;;;6.75;100.00;100124.66;105509;1296;25385;-73
2023/03/17 01:28:22;;;;;;;26.80;11.70;;;;;;;6.76;100.00;100124.50;105622;1296;25369;-71
2023/03/17 01:30:51;;;;;;;21.50;10.50;;;;;;;6.76;100.00;100121.10;105648;1296;22563;-73
2023/03/17 01:33:19;;;;;;;23.40;10.60;;;;;;;6.78;100.00;100120.80;105598;1296;22636;-71
2023/03/17 01:35:49;;;;;;;22.60;10.70;;;;;;;6.80;100.00;100123.83;105619;1296;25326;-71
2023/03/17 01:38:18;;;;;;;24.00;10.80;;;;;;;6.80;100.00;100125.21;105282;1296;25947;-72
2023/03/17 01:40:49;;;;;;;22.10;10.80;;;;;;;6.80;100.00;100127.00;105600;1296;24255;-71
2023/03/17 01:43:30;;;;;;;22.50;10.60;;;;;;;6.80;100.00;100130.23;105436;1296;23937;-71
2023/03/17 01:46:14;;;;;;;21.70;10.60;;;;;;;6.79;100.00;100130.13;105464;1296;22510;-72
2023/03/17 01:48:50;;;;;;;23.80;11.50;;;;;;;6.79;100.00;100131.41;105550;1296;24362;-71
2023/03/17 01:51:48;;;;;;;21.90;10.20;;;;;;;6.79;100.00;100131.20;105624;1296;25379;-72
2023/03/17 01:54:28;;;;;;;21.80;10.40;;;;;;;6.79;100.00;100130.89;105344;1296;22663;-70
2023/03/17 01:57:02;;;;;;;22.60;10.60;;;;;;;6.79;100.00;100136.21;105472;1296;25395;-73
2023/03/17 01:59:34;;;;;;;26.10;11.90;;;;;;;6.79;100.00;100145.72;105543;1296;25502;-73
2023/03/17 02:02:06;;;;;;;21.00;9.70;;;;;;;6.79;100.00;100151.47;105423;1296;24238;-72
2023/03/17 02:04:37;;;;;;;22.50;10.60;;;;;;;6.80;100.00;100151.55;105435;1296;26525;-71
2023/03/17 02:07:06;;;;;;;23.40;11.40;;;;;;;6.80;100.00;100157.26;105303;1296;22634;-71
2023/03/17 02:09:38;;;;;;;19.70;9.70;;;;;;;6.81;100.00;100162.02;105130;1296;23951;-72
2023/03/17 02:12:08;;;;;;;19.60;9.90;;;;;;;6.83;100.00;100165.05;105340;1296;26653;-73
2023/03/17 02:14:36;;;;;;;22.70;11.00;;;;;;;6.83;100.00;100167.23;105497;1296;22792;-70
2023/03/17 02:17:07;;;;;;;21.40;10.10;;;;;;;6.83;100.00;100168.69;105505;1296;25341;-72
2023/03/17 02:19:38;;;;;;;21.00;10.20;;;;;;;6.83;100.00;100169.02;105415;1296;25381;-71
2023/03/17 02:22:07;;;;;;;18.40;9.50;;;;;;;6.83;100.00;100169.55;105560;1290;26549;-71
2023/03/17 02:24:38;;;;;;;21.80;11.30;;;;;;;6.85;100.00;100168.34;105586;1296;25492;-72
2023/03/17 02:27:32;;;;;;;23.30;11.80;;;;;;;6.85;100.00;100172.79;105487;1296;22565;-72
2023/03/17 02:30:03;;;;;;;23.40;10.20;;;;;;;6.84;100.00;100168.20;105473;1296;26665;-72
2023/03/17 02:32:34;;;;;;;20.80;10.70;;;;;;;6.84;100.00;100174.29;105416;1296;22557;-72
2023/03/17 02:35:04;;;;;;;19.10;8.80;;;;;;;6.86;100.00;100176.69;105515;1296;25276;-72
2023/03/17 02:37:33;;;;;;;19.70;9.60;;;;;;;6.87;100.00;100179.48;105597;1296;25446;-74
2023/03/17 02:40:04;;;;;;;22.30;10.70;;;;;;;6.87;100.00;100181.59;105583;1297;25289;-72
2023/03/17 02:42:34;;;;;;;19.90;10.30;;;;;;;6.85;100.00;100184.27;105647;1296;26555;-72
2023/03/17 02:45:05;;;;;;;17.40;8.90;;;;;;;6.83;100.00;100185.19;105382;1296;25377;-71
2023/03/17 02:47:41;;;;;;;18.30;9.70;;;;;;;6.83;100.00;100181.05;105362;1296;25331;-71
2023/03/17 02:50:22;;;;;;;21.40;10.70;;;;;;;6.85;100.00;100186.05;105668;1296;25452;-72
2023/03/17 02:52:50;;;;;;;20.70;10.60;;;;;;;6.85;100.00;100188.73;105510;1296;24296;-70
2023/03/17 02:55:19;;;;;;;20.90;9.80;;;;;;;6.85;100.00;100191.45;105675;1296;25306;-71
2023/03/17 02:57:48;;;;;;;19.60;10.00;;;;;;;6.85;100.00;100199.48;105629;1296;25367;-71
2023/03/17 03:00:20;;;;;;;20.00;10.20;;;;;;;6.88;100.00;100206.45;105583;1296;25395;-71
2023/03/17 03:02:49;;;;;;;23.20;11.70;;;;;;;6.89;100.00;100207.35;105627;1296;26747;-71
2023/03/17 03:05:23;;;;;;;28.90;13.80;;;;;;;6.90;100.00;100212.10;105607;1296;25496;-70
2023/03/17 03:07:52;;;;;;;39.50;14.30;;;;;;;6.90;100.00;100214.60;103882;1296;1002939;-73
2023/03/17 03:10:20;;;;;;;46.70;19.80;;;;;;;6.91;100.00;100214.52;105540;1296;22555;-71
2023/03/17 03:12:52;;;;;;;50.20;21.20;;;;;;;6.93;100.00;100225.07;105427;1296;23790;-70
2023/03/17 03:15:21;;;;;;;63.50;23.50;;;;;;;6.94;100.00;100221.02;105591;1296;25452;-71
2023/03/17 03:17:50;;;;;;;44.30;19.80;;;;;;;6.95;100.00;100223.00;104608;1296;1003645;-71
2023/03/17 03:20:20;;;;;;;43.80;18.30;;;;;;;6.96;100.00;100224.67;105445;1296;26535;-71
2023/03/17 03:22:49;;;;;;;60.10;24.20;;;;;;;6.97;100.00;100225.97;105479;1296;25424;-73
2023/03/17 03:25:18;;;;;;;63.20;24.90;;;;;;;6.97;100.00;100229.73;105357;1296;24379;-71
2023/03/17 03:27:47;;;;;;;46.30;20.60;;;;;;;6.96;100.00;100234.55;105404;1296;25987;-71
2023/03/17 03:30:16;;;;;;;36.30;16.70;;;;;;;6.94;100.00;100239.20;105554;1296;23422;-71
2023/03/17 03:32:46;;;;;;;47.20;19.30;;;;;;;6.93;100.00;100240.12;105625;1296;25252;-72
2023/03/17 03:35:15;;;;;;;48.50;18.90;;;;;;;6.94;100.00;100244.22;105648;1296;26525;-70
2023/03/17 03:37:49;;;;;;;51.80;22.80;;;;;;;6.95;100.00;100251.07;105440;1296;23830;-70
2023/03/17 03:40:17;;;;;;;49.20;21.90;;;;;;;6.96;100.00;100256.94;105624;1296;22683;-70
2023/03/17 03:42:46;;;;;;;43.10;18.90;;;;;;;6.97;100.00;100265.23;105563;1292;25410;-70
2023/03/17 03:45:15;;;;;;;43.60;17.80;;;;;;;6.98;100.00;100270.11;105440;1296;25522;-71
2023/03/17 03:47:43;;;;;;;60.70;26.40;;;;;;;7.01;100.00;100272.58;105618;1296;25298;-71
2023/03/17 03:50:15;;;;;;;92.40;48.30;;;;;;;7.04;100.00;100281.45;106510;1296;22082;-70
2023/03/17 03:52:45;;;;;;;169.60;90.30;;;;;;;7.05;100.00;100282.98;108244;1296;23829;-69
2023/03/17 03:55:14;;;;;;;111.40;65.60;;;;;;;7.06;100.00;100284.83;105361;1296;25991;-70
2023/03/17 03:57:43;;;;;;;147.70;80.60;;;;;;;7.09;100.00;100284.93;105476;1296;26556;-71
2023/03/17 04:00:14;;;;;;;113.40;69.30;;;;;;;7.12;100.00;100287.39;105692;1296;25474;-69
2023/03/17 04:02:45;;;;;;;50.20;31.20;;;;;;;7.13;100.00;100293.82;105339;1296;25488;-71
2023/03/17 04:05:16;;;;;;;36.00;20.60;;;;;;;7.13;100.00;100296.17;105323;1296;26520;-73
2023/03/17 04:07:46;;;;;;;28.80;14.80;;;;;;;7.13;100.00;100297.23;105406;1296;25395;-72
2023/03/17 04:10:15;;;;;;;30.70;13.30;;;;;;;7.11;100.00;100300.67;105530;1296;22592;-70
2023/03/17 04:12:45;;;;;;;27.50;12.70;;;;;;;7.10;100.00;100301.66;105705;1296;25429;-70
2023/03/17 04:15:18;;;;;;;22.10;11.80;;;;;;;7.10;100.00;100303.66;105484;1296;25233;-71
2023/03/17 04:17:47;;;;;;;20.20;11.80;;;;;;;7.10;100.00;100306.89;105456;1296;24282;-71
2023/03/17 04:20:15;;;;;;;24.20;11.30;;;;;;;7.11;100.00;100307.19;105456;1296;22547;-71
2023/03/17 04:22:45;;;;;;;22.70;11.90;;;;;;;7.12;100.00;100311.01;105397;1296;26772;-72
2023/03/17 04:25:14;;;;;;;21.90;10.70;;;;;;;7.14;100.00;100314.06;105662;1296;25464;-71
2023/03/17 04:27:43;;;;;;;22.20;11.70;;;;;;;7.16;100.00;100315.98;105422;1296;22549;-71
2023/03/17 04:30:15;;;;;;;22.40;11.60;;;;;;;7.17;100.00;100323.63;105512;1296;25468;-71
2023/03/17 04:32:45;;;;;;;;;;;;;;;7.18;100.00;100321.34;105451;1296;24272;-71
2023/03/17 04:35:16;;;;;;;26.70;15.70;;;;;;;7.19;100.00;100327.20;105499;1296;26541;-71
2023/03/17 04:37:48;;;;;;;23.70;14.90;;;;;;;7.20;100.00;100335.05;105431;1296;25477;-71
2023/03/17 04:40:22;;;;;;;20.70;12.50;;;;;;;7.21;100.00;100339.77;105474;1296;23821;-71
2023/03/17 04:42:51;;;;;;;19.40;11.70;;;;;;;7.22;100.00;100338.23;105286;1296;25309;-73
2023/03/17 04:45:20;;;;;;;21.60;12.20;;;;;;;7.22;100.00;100344.88;105645;1296;22548;-71
2023/03/17 04:47:49;;;;;;;20.50;11.60;;;;;;;7.22;100.00;100342.52;105524;1296;25574;-71
2023/03/17 04:50:18;;;;;;;17.90;11.60;;;;;;;7.23;100.00;100346.23;105234;1296;25454;-73
2023/03/17 04:52:51;;;;;;;18.30;10.90;;;;;;;7.25;100.00;100354.25;105437;1296;26532;-71
2023/03/17 04:55:20;;;;;;;23.30;14.30;;;;;;;7.27;100.00;100357.11;105364;1296;25527;-71
2023/03/17 04:57:48;;;;;;;23.80;12.30;;;;;;;7.28;100.00;100355.80;105369;1296;22510;-70
2023/03/17 05:00:18;;;;;;;19.30;11.40;;;;;;;7.28;100.00;100358.11;105539;1296;25312;-71
2023/03/17 05:02:47;;;;;;;18.60;11.80;;;;;;;7.30;100.00;100361.31;105433;1296;25273;-72
2023/03/17 05:05:17;;;;;;;16.80;9.90;;;;;;;7.31;100.00;100363.94;105444;1281;23870;-71
2023/03/17 05:07:46;;;;;;;17.40;9.90;;;;;;;7.32;100.00;100366.02;105344;1296;26547;-71
2023/03/17 05:10:15;;;;;;;16.80;10.00;;;;;;;7.33;100.00;100375.03;105425;1296;25391;-70
2023/03/17 05:12:45;;;;;;;18.40;11.50;;;;;;;7.34;100.00;100372.43;105293;1296;25353;-70
2023/03/17 05:15:14;;;;;;;18.80;10.60;;;;;;;7.35;100.00;100379.33;105356;1296;26664;-71
2023/03/17 05:17:43;;;;;;;26.30;13.40;;;;;;;7.37;100.00;100382.71;105426;1296;26651;-71
2023/03/17 05:20:12;;;;;;;25.20;11.70;;;;;;;7.37;100.00;100384.73;105411;1296;22546;-71
2023/03/17 05:22:41;;;;;;;20.20;10.80;;;;;;;7.36;100.00;100388.17;105498;1296;25500;-72
2023/03/17 05:25:15;;;;;;;18.30;10.00;;;;;;;7.37;100.00;100387.55;105505;1296;26015;-71
2023/03/17 05:27:45;;;;;;;18.80;11.00;;;;;;;7.36;100.00;100392.14;105431;1296;25491;-72
2023/03/17 05:30:14;;;;;;;20.10;11.10;;;;;;;7.34;100.00;100394.47;105502;1296;26983;-72
2023/03/17 05:32:43;;;;;;;18.00;10.20;;;;;;;7.35;100.00;100395.97;105430;1296;25376;-74
2023/03/17 05:35:12;;;;;;;20.90;11.50;;;;;;;7.36;100.00;100404.75;105681;1296;26546;-72
2023/03/17 05:37:43;;;;;;;22.40;12.20;;;;;;;7.37;100.00;100410.88;105452;1296;26550;-72
2023/03/17 05:40:13;;;;;;;26.70;14.50;;;;;;;7.37;100.00;100416.85;105473;1296;26655;-71
2023/03/17 05:42:42;;;;;;;22.00;11.30;;;;;;;7.35;100.00;100418.99;104865;1296;1002920;-71
2023/03/17 05:45:11;;;;;;;21.10;11.20;;;;;;;7.34;100.00;100420.67;105426;1296;25660;-73
2023/03/17 05:47:43;;;;;;;21.20;12.00;;;;;;;7.34;100.00;100423.59;105471;1296;25376;-71
2023/03/17 05:50:12;;;;;;;23.80;11.70;;;;;;;7.36;100.00;100425.67;105611;1297;25196;-70
2023/03/17 05:52:41;;;;;;;18.90;10.40;;;;;;;7.37;100.00;100426.48;105597;1297;22796;-69
2023/03/17 05:55:11;;;;;;;26.30;15.60;;;;;;;7.40;100.00;100429.64;105622;1297;26571;-69
2023/03/17 05:57:41;;;;;;;23.30;12.70;;;;;;;7.40;100.00;100422.77;105641;1298;23615;-68
2023/03/17 06:00:11;;;;;;;36.10;20.00;;;;;;;7.42;100.00;100423.90;105626;1297;25341;-71
2023/03/17 06:02:40;;;;;;;59.80;37.20;;;;;;;7.44;100.00;100420.71;105612;1298;22546;-70
2023/03/17 06:05:09;;;;;;;37.00;23.50;;;;;;;7.45;100.00;100423.63;105444;1297;22547;-70
2023/03/17 06:07:40;;;;;;;75.20;43.60;;;;;;;7.48;100.00;100425.17;105483;1297;221846;-70
2023/03/17 06:10:24;;;;;;;28.80;19.60;;;;;;;7.50;100.00;100427.13;106127;1298;23235;-69
2023/03/17 06:12:57;;;;;;;41.90;22.80;;;;;;;7.51;100.00;100433.89;105638;1298;22515;-70
2023/03/17 06:15:27;;;;;;;50.10;26.30;;;;;;;7.53;100.00;100434.21;105665;1297;24437;-69
2023/03/17 06:17:56;;;;;;;25.30;15.40;;;;;;;7.56;100.00;100432.45;105779;1297;22577;-70
2023/03/17 06:20:26;;;;;;;23.90;14.20;;;;;;;7.60;100.00;100433.55;105702;1298;25332;-68
2023/03/17 06:22:56;;;;;;;25.00;14.20;;;;;;;7.64;100.00;100431.94;105765;1285;22555;-67
2023/03/17 06:25:34;;;;;;;29.30;16.60;;;;;;;7.67;100.00;100432.15;105733;1296;25339;-72
2023/03/17 06:28:14;;;;;;;31.50;16.60;;;;;;;7.69;100.00;100437.88;105534;1293;22540;-70
2023/03/17 06:30:43;;;;;;;34.60;19.40;;;;;;;7.72;100.00;100439.58;105471;1289;22565;-72
2023/03/17 06:33:17;;;;;;;36.00;20.90;;;;;;;7.75;100.00;100439.66;105437;1296;23889;-72
2023/03/17 06:35:47;;;;;;;29.30;18.00;;;;;;;7.78;100.00;100441.19;105380;1297;25436;-70
2023/03/17 06:38:15;;;;;;;27.00;14.80;;;;;;;7.79;100.00;100443.61;105259;1296;23942;-70
2023/03/17 06:40:49;;;;;;;29.10;14.50;;;;;;;7.80;100.00;100445.46;105169;1296;25436;-69
2023/03/17 06:43:18;;;;;;;28.60;13.60;;;;;;;7.82;100.00;100443.01;105387;1292;25443;-72
2023/03/17 06:45:47;;;;;;;80.10;40.20;;;;;;;7.88;100.00;100447.48;105240;1293;25328;-69
2023/03/17 06:48:16;;;;;;;28.60;15.90;;;;;;;7.95;100.00;100447.88;105430;1293;22807;-71
2023/03/17 06:50:46;;;;;;;29.10;16.10;;;;;;;7.98;100.00;100454.07;105398;1293;25383;-69
2023/03/17 06:53:17;;;;;;;32.90;19.90;;;;;;;7.99;100.00;100452.39;105374;1289;25358;-69
2023/03/17 06:55:46;;;;;;;33.50;18.70;;;;;;;7.99;100.00;100451.05;104682;1293;1003110;-70
2023/03/17 06:58:14;;;;;;;37.00;21.50;;;;;;;8.03;100.00;100454.15;105392;1290;25268;-71
2023/03/17 07:00:44;;;;;;;61.80;30.60;;;;;;;8.05;100.00;100452.13;105316;1289;25532;-67
2023/03/17 07:03:15;;;;;;;44.60;24.70;;;;;;;8.06;100.00;100447.59;105214;1290;25475;-70
2023/03/17 07:05:48;;;;;;;41.20;21.30;;;;;;;8.07;100.00;100452.54;105353;1292;24969;-69
2023/03/17 07:08:18;;;;;;;40.50;20.80;;;;;;;8.05;100.00;100442.31;105296;1295;24262;-69
2023/03/17 07:10:47;;;;;;;50.30;23.10;;;;;;;8.01;100.00;100436.37;105356;1290;22785;-70
2023/03/17 07:13:16;;;;;;;40.00;19.30;;;;;;;7.95;100.00;100423.25;105399;1289;25999;-72
2023/03/17 07:15:47;;;;;;;40.50;18.60;;;;;;;7.94;100.00;100420.70;105448;1289;22562;-72
2023/03/17 07:18:20;;;;;;;44.30;21.70;;;;;;;7.91;100.00;100413.42;105154;1290;25465;-72
2023/03/17 07:20:49;;;;;;;42.40;20.20;;;;;;;7.89;100.00;100406.80;105450;1289;26551;-71
2023/03/17 07:23:20;;;;;;;42.80;21.50;;;;;;;7.87;100.00;100399.96;105228;1298;22546;-72
2023/03/17 07:25:49;;;;;;;39.40;20.20;;;;;;;7.85;100.00;100391.78;105399;1297;23898;-71
2023/03/17 07:28:20;;;;;;;42.90;21.90;;;;;;;7.82;100.00;100383.64;105443;1292;25450;-71
2023/03/17 07:30:56;;;;;;;40.50;21.30;;;;;;;7.79;100.00;100382.39;106629;1297;22826;-73
2023/03/17 07:33:32;;;;;;;45.90;22.40;;;;;;;7.76;100.00;100380.52;106757;1297;22564;-71
2023/03/17 07:36:04;;;;;;;42.10;22.80;;;;;;;7.73;100.00;100379.71;106315;1297;22761;-71
2023/03/17 07:38:40;;;;;;;47.20;23.50;;;;;;;7.74;100.00;100371.84;106949;1296;25275;-73
2023/03/17 07:41:14;;;;;;;36.80;20.00;;;;;;;7.75;100.00;100368.05;106035;1297;22847;-74
2023/03/17 07:43:45;;;;;;;29.60;17.10;;;;;;;7.77;100.00;100362.89;105324;1297;24729;-75
2023/03/17 07:46:17;;;;;;;40.90;23.80;;;;;;;7.78;100.00;100363.80;105396;1289;22573;-72
2023/03/17 07:48:45;;;;;;;37.00;20.00;;;;;;;7.78;100.00;100362.04;105237;1292;22549;-72
2023/03/17 07:51:16;;;;;;;34.20;16.70;;;;;;;7.77;100.00;100361.59;105325;1297;25453;-71
2023/03/17 07:53:45;;;;;;;38.70;19.00;;;;;;;7.77;100.00;100356.06;105239;1289;25398;-68
2023/03/17 07:56:14;;;;;;;43.00;23.80;;;;;;;7.75;100.00;100352.44;105381;1290;23705;-72
2023/03/17 07:58:42;;;;;;;39.30;22.80;;;;;;;7.75;100.00;100348.70;105399;1290;25475;-71
2023/03/17 08:01:20;;;;;;;42.10;22.20;;;;;;;7.76;100.00;100349.46;105516;1293;25361;-72
2023/03/17 08:03:49;;;;;;;;;;;;;;;7.77;100.00;100347.41;106934;1296;22556;-71
2023/03/17 08:06:23;;;;;;;38.30;20.90;;;;;;;7.77;100.00;100354.56;105838;1290;22579;-71
2023/03/17 08:09:00;;;;;;;40.10;21.50;;;;;;;7.78;100.00;100358.80;106008;1289;24326;-73
2023/03/17 08:11:29;;;;;;;34.90;18.60;;;;;;;7.80;100.00;100362.23;106244;1289;27160;-73
2023/03/17 08:14:00;;;;;;;39.10;22.70;;;;;;;7.79;100.00;100357.98;105769;1290;22774;-76
2023/03/17 08:16:30;;;;;;;64.10;36.40;;;;;;;7.79;100.00;100359.09;105801;1290;23901;-73
2023/03/17 08:19:02;;;;;;;41.20;25.40;;;;;;;7.81;100.00;100361.64;105589;1289;25332;-72
2023/03/17 08:21:32;;;;;;;31.30;19.00;;;;;;;7.83;100.00;100361.65;105716;1289;26522;-72
2023/03/17 08:24:03;;;;;;;34.40;19.10;;;;;;;7.82;100.00;100366.34;105900;1292;22557;-73
2023/03/17 08:26:35;;;;;;;33.80;18.00;;;;;;;7.83;100.00;100363.09;105844;1296;25408;-71
2023/03/17 08:29:08;;;;;;;36.00;16.70;;;;;;;7.85;100.00;100360.39;107348;1289;25975;-72
2023/03/17 08:31:39;;;;;;;43.00;24.00;;;;;;;7.89;100.00;100368.05;105347;1295;22599;-71
2023/03/17 08:34:08;;;;;;;33.20;18.00;;;;;;;7.96;100.00;100367.55;105847;1289;22767;-74
2023/03/17 08:36:38;;;;;;;30.60;17.10;;;;;;;8.05;100.00;100363.30;105404;1292;25905;-76
2023/03/17 08:39:09;;;;;;;32.80;15.60;;;;;;;8.14;100.00;100363.48;105275;1293;22553;-73
2023/03/17 08:41:40;;;;;;;33.60;16.90;;;;;;;8.25;100.00;100362.28;105497;1296;25524;-73
2023/03/17 08:44:13;;;;;;;35.50;19.40;;;;;;;8.35;100.00;100356.30;105817;1290;22885;-75
2023/03/17 08:46:42;;;;;;;35.50;19.80;;;;;;;8.39;100.00;100353.19;105786;1296;22580;-74
2023/03/17 08:49:12;;;;;;;44.60;26.50;;;;;;;8.41;100.00;100351.05;106349;1290;25275;-72
2023/03/17 08:51:41;;;;;;;31.60;19.40;;;;;;;8.37;100.00;100352.69;105549;1295;23890;-71
2023/03/17 08:54:12;;;;;;;26.50;15.30;;;;;;;8.29;100.00;100359.96;105755;1290;26532;-73
2023/03/17 08:56:41;;;;;;;28.40;16.40;;;;;;;8.22;100.00;100379.83;105677;1296;22542;-73
2023/03/17 08:59:09;;;;;;;27.60;15.70;;;;;;;8.20;100.00;100385.94;105746;1289;22550;-75
2023/03/17 09:01:40;;;;;;;26.90;14.80;;;;;;;8.22;100.00;100385.50;105752;1293;25530;-73
2023/03/17 09:04:11;;;;;;;33.30;16.00;;;;;;;8.31;100.00;100384.45;105488;1297;26750;-73
2023/03/17 09:06:41;;;;;;;28.30;15.60;;;;;;;8.42;100.00;100389.41;105629;1296;23431;-74
2023/03/17 09:09:33;;;;;;;30.90;16.50;;;;;;;8.49;100.00;100391.27;105477;1296;25451;-72
2023/03/17 09:12:05;;;;;;;29.70;15.40;;;;;;;8.49;100.00;100395.92;105368;1296;22591;-73
2023/03/17 09:14:34;;;;;;;24.90;14.00;;;;;;;8.45;100.00;100395.78;105380;1296;24826;-75
2023/03/17 09:17:13;;;;;;;23.20;12.40;;;;;;;8.43;100.00;100400.05;105375;1289;25436;-74
2023/03/17 09:19:42;;;;;;;26.90;15.20;;;;;;;8.43;100.00;100402.95;105254;1297;22549;-76
2023/03/17 09:22:12;;;;;;;27.30;14.50;;;;;;;8.42;100.00;100406.28;105403;1289;24360;-73
2023/03/17 09:24:42;;;;;;;22.10;11.70;;;;;;;8.40;100.00;100405.00;105339;1296;25284;-73
2023/03/17 09:27:12;;;;;;;23.50;12.60;;;;;;;8.39;100.00;100404.91;105543;1289;23013;-69
2023/03/17 09:29:41;;;;;;;25.30;13.50;;;;;;;8.37;100.00;100412.14;105475;1295;25400;-72
2023/03/17 09:32:10;;;;;;;27.60;15.50;;;;;;;8.35;100.00;100413.43;105660;1290;22637;-71
2023/03/17 09:34:40;;;;;;;28.50;16.00;;;;;;;8.30;100.00;100426.23;105587;1289;26715;-73
2023/03/17 09:37:09;;;;;;;28.40;15.00;;;;;;;8.28;100.00;100438.27;105441;1296;25563;-71
2023/03/17 09:39:38;;;;;;;28.80;14.60;;;;;;;8.26;100.00;100442.27;105507;1295;22552;-70
2023/03/17 09:42:32;;;;;;;27.60;14.10;;;;;;;8.19;100.00;100450.08;105606;1296;25622;-70
2023/03/17 09:45:31;;;;;;;29.50;16.10;;;;;;;8.18;100.00;100451.84;105603;1296;25456;-72
2023/03/17 09:48:16;;;;;;;37.00;18.30;;;;;;;8.17;100.00;100457.52;105666;1289;25564;-71
2023/03/17 09:50:54;;;;;;;35.40;17.40;;;;;;;8.15;100.00;100470.09;105521;1292;22562;-72
2023/03/17 09:53:32;;;;;;;32.50;15.70;;;;;;;8.13;100.00;100475.58;105112;1292;24242;-73
2023/03/17 09:56:41;;;;;;;35.70;16.40;;;;;;;8.18;100.00;100472.82;105710;1292;26783;-73
2023/03/17 09:59:34;;;;;;;44.10;17.70;;;;;;;8.34;100.00;100463.59;105240;1294;22674;-73
2023/03/17 10:02:17;;;;;;;37.80;20.40;;;;;;;8.52;100.00;100468.62;105669;1299;22543;-73
2023/03/17 10:04:47;;;;;;;53.40;21.20;;;;;;;8.67;100.00;100475.92;105472;1295;24252;-74
2023/03/17 10:07:21;;;;;;;47.30;27.40;;;;;;;8.77;100.00;100478.96;105637;1301;23815;-73
2023/03/17 10:10:01;;;;;;;38.90;18.20;;;;;;;8.84;100.00;100485.95;105731;1298;25338;-71
2023/03/17 10:13:11;;;;;;;46.30;19.10;;;;;;;8.88;100.00;100494.62;105526;1300;22552;-72
2023/03/17 10:15:49;;;;;;;27.30;15.60;;;;;;;8.87;100.00;100492.34;105023;1300;24719;-72
2023/03/17 10:18:18;;;;;;;48.10;20.40;;;;;;;8.84;100.00;100507.43;105365;1300;26598;-71
2023/03/17 10:20:53;;;;;;;32.10;16.70;;;;;;;8.79;100.00;100516.27;105259;1294;22567;-70
2023/03/17 10:23:28;;;;;;;36.30;16.90;;;;;;;8.74;100.00;100519.82;105456;1292;22584;-74
2023/03/17 10:26:01;;;;;;;27.90;13.80;;;;;;;8.73;100.00;100522.44;105388;1293;23893;-71
2023/03/17 10:28:33;;;;;;;26.90;14.20;;;;;;;8.76;100.00;100527.23;105328;1293;23094;-71
2023/03/17 10:31:31;;;;;;;37.40;16.60;;;;;;;8.74;100.00;100537.81;105410;1292;26760;-72
2023/03/17 10:34:16;;;;;;;37.10;17.70;;;;;;;8.73;100.00;100535.06;105708;1296;25480;-74
2023/03/17 10:36:50;;;;;;;39.50;17.10;;;;;;;8.71;100.00;100540.37;105602;1290;26621;-75
2023/03/17 10:39:22;;;;;;;31.50;15.10;;;;;;;8.70;100.00;100550.40;105279;1295;24321;-73
2023/03/17 10:41:56;;;;;;;25.80;12.10;;;;;;;8.65;100.00;100560.23;105417;1293;25361;-71
2023/03/17 10:44:38;;;;;;;25.20;13.30;;;;;;;8.65;100.00;100573.02;105327;1295;22563;-72
2023/03/17 10:47:20;;;;;;;33.50;15.10;;;;;;;8.64;100.00;100586.02;105481;1296;24159;-72
2023/03/17 10:49:51;;;;;;;24.10;12.70;;;;;;;8.63;100.00;100600.48;105233;1295;22555;-72
2023/03/17 10:52:34;;;;;;;29.00;14.70;;;;;;;8.62;100.00;100608.02;105608;1290;25352;-73
2023/03/17 10:55:04;;;;;;;28.80;13.10;;;;;;;8.62;100.00;100607.48;105600;1293;22552;-72
2023/03/17 10:57:37;;;;;;;32.60;15.70;;;;;;;8.64;100.00;100615.51;105476;1292;24252;-71
2023/03/17 11:00:16;;;;;;;36.20;19.50;;;;;;;8.67;100.00;100619.56;105399;1292;24244;-71
2023/03/17 11:02:58;;;;;;;25.60;13.20;;;;;;;8.66;100.00;100628.95;105700;1289;23340;-73
2023/03/17 11:05:29;;;;;;;29.60;14.40;;;;;;;8.64;100.00;100633.10;105496;1296;25410;-75
2023/03/17 11:08:09;;;;;;;26.80;13.80;;;;;;;8.62;100.00;100639.94;105324;1296;22552;-73
2023/03/17 11:10:40;;;;;;;23.10;11.80;;;;;;;8.59;100.00;100636.83;105864;1293;24227;-74
2023/03/17 11:13:09;;;;;;;26.90;12.40;;;;;;;8.57;100.00;100646.53;105341;1296;22553;-74
2023/03/17 11:16:03;;;;;;;23.20;12.50;;;;;;;8.57;100.00;100651.59;105406;1296;25350;-73
2023/03/17 11:18:36;;;;;;;31.30;14.10;;;;;;;8.59;100.00;100649.62;105436;1296;25438;-73
2023/03/17 11:21:05;;;;;;;30.20;14.30;;;;;;;8.58;100.00;100665.37;105489;1292;22666;-76
2023/03/17 11:23:57;;;;;;;28.90;14.30;;;;;;;8.53;100.00;100670.59;105481;1296;26561;-70